Time;durP1;ratioP1;P1;durP2;ratioP2;P2;SDS_P1;SDS_P2;PMS_P1;PMS_P2;Temp;Humidity;BMP_temperature;BMP_pressure;BME280_temperature;BME280_humidity;BME280_pressure;Samples;Min_cycle;Max_cycle;Signal;HPM_P1;HPM_P2
2022/01/21 00:00:58;;;;;;;13.30;1.77;;;2.50;99.90;;;;;;5067445;28;20044;-76
2022/01/21 00:03:24;;;;;;;11.10;1.52;;;2.60;99.90;;;;;;5067845;28;20123;-76
2022/01/21 00:05:49;;;;;;;15.55;1.92;;;2.70;99.90;;;;;;5067546;28;20055;-76
2022/01/21 00:08:16;;;;;;;16.55;1.80;;;2.70;99.90;;;;;;5049908;28;20040;-76
2022/01/21 00:10:41;;;;;;;18.75;2.25;;;2.70;99.90;;;;;;5066268;28;20045;-76
2022/01/21 00:13:16;;;;;;;13.07;1.45;;;2.70;99.90;;;;;;5066816;28;20522;-76
2022/01/21 00:15:42;;;;;;;16.65;2.35;;;2.70;99.90;;;;;;5066831;28;20152;-76
2022/01/21 00:18:09;;;;;;;11.65;1.50;;;2.70;99.90;;;;;;5067715;28;20558;-76
2022/01/21 00:31:31;;;;;;;21.25;3.10;;;3.10;99.90;;;;;;5071018;28;20053;-77
2022/01/21 00:33:57;;;;;;;16.92;2.25;;;3.20;99.90;;;;;;5071241;28;20043;-76
2022/01/21 00:36:23;;;;;;;16.50;2.50;;;3.20;99.90;;;;;;5071953;28;20090;-76
2022/01/21 00:38:48;;;;;;;;;;;3.20;99.90;;;;;;5071144;28;20052;-76
2022/01/21 00:41:19;;;;;;;;;;;3.20;99.90;;;;;;5071340;28;19920;-76
2022/01/21 00:43:45;;;;;;;;;;;3.20;99.90;;;;;;5070771;28;19920;-77
2022/01/21 00:46:11;;;;;;;;;;;3.10;99.90;;;;;;5071741;28;19943;-76
2022/01/21 00:48:36;;;;;;;;;;;3.10;99.90;;;;;;5071590;28;20267;-76
2022/01/21 00:51:02;;;;;;;;;;;3.00;99.90;;;;;;5072350;28;19931;-76
2022/01/21 00:53:27;;;;;;;;;;;2.90;99.90;;;;;;5071396;28;20014;-76
2022/01/21 00:55:53;;;;;;;;;;;2.90;99.90;;;;;;5071041;28;19973;-76
2022/01/21 00:58:19;;;;;;;;;;;3.00;99.90;;;;;;5054029;28;19920;-76
2022/01/21 01:00:44;;;;;;;;;;;3.00;99.90;;;;;;5070927;28;19920;-76
2022/01/21 01:03:10;;;;;;;;;;;3.00;99.90;;;;;;5054758;28;20394;-76
2022/01/21 01:05:36;;;;;;;;;;;3.00;99.90;;;;;;5070689;28;20385;-75
2022/01/21 01:08:03;;;;;;;;;;;3.10;99.90;;;;;;5070900;28;19920;-76
2022/01/21 01:10:59;;;;;;;;;;;3.10;99.90;;;;;;5070814;28;19920;-76
2022/01/21 01:21:28;;;;;;;;;;;3.10;99.90;;;;;;5070982;28;20011;-76
2022/01/21 01:29:24;;;;;;;;;;;3.10;99.90;;;;;;5032979;28;19977;-76
2022/01/21 01:31:51;;;;;;;;;;;3.10;99.90;;;;;;5070741;28;19943;-76
2022/01/21 01:34:17;;;;;;;;;;;3.10;99.90;;;;;;5070580;28;19951;-76
2022/01/21 01:36:44;;;;;;;;;;;3.10;99.90;;;;;;5069849;28;20717;-76
2022/01/21 01:50:34;;;;;;;;;;;2.80;99.90;;;;;;5050987;28;19927;-76
2022/01/21 01:53:00;;;;;;;;;;;2.70;99.90;;;;;;5050057;28;19924;-76
2022/01/21 01:55:26;;;;;;;;;;;2.70;99.90;;;;;;5050047;28;19928;-76
2022/01/21 01:57:52;;;;;;;;;;;2.70;99.90;;;;;;5066526;28;19967;-76
2022/01/21 02:00:17;;;;;;;;;;;2.80;99.90;;;;;;5049910;28;19928;-76
2022/01/21 02:02:43;;;;;;;;;;;2.70;99.90;;;;;;5049933;28;20333;-76
2022/01/21 02:05:08;;;;;;;;;;;2.80;99.90;;;;;;5049808;28;19921;-76
2022/01/21 02:07:34;;;;;;;;;;;2.70;99.90;;;;;;5049422;28;19943;-76
2022/01/21 02:10:00;;;;;;;;;;;2.70;99.90;;;;;;5065927;28;20302;-76
2022/01/21 02:12:25;;;;;;;;;;;2.70;99.90;;;;;;5049707;28;19921;-76
2022/01/21 02:14:53;;;;;;;;;;;2.70;99.90;;;;;;5049369;28;19921;-76
2022/01/21 02:21:29;;;;;;;;;;;2.60;99.90;;;;;;5066223;28;19920;-76
2022/01/21 02:22:55;;;;;;;;;;;2.60;99.90;;;;;;5049309;28;19927;-76
2022/01/21 02:25:20;;;;;;;;;;;2.50;99.90;;;;;;5049072;28;20379;-76
2022/01/21 02:27:48;;;;;;;;;;;2.50;99.90;;;;;;5067385;28;19977;-77
2022/01/21 02:30:20;;;;;;;;;;;2.50;99.90;;;;;;5068767;28;19956;-76
2022/01/21 02:32:47;;;;;;;;;;;2.50;99.90;;;;;;5070419;28;19920;-76
2022/01/21 02:35:13;;;;;;;;;;;2.50;99.90;;;;;;5068993;28;19935;-76
2022/01/21 02:37:39;;;;;;;;;;;2.50;99.90;;;;;;5052472;28;20283;-77
2022/01/21 02:40:06;;;;;;;;;;;2.60;99.90;;;;;;5069138;28;20057;-76
2022/01/21 02:42:31;;;;;;;;;;;2.70;99.90;;;;;;5052130;28;19924;-76
2022/01/21 02:44:57;;;;;;;;;;;2.70;99.90;;;;;;5074102;28;19979;-76
2022/01/21 02:47:22;;;;;;;;;;;2.70;99.90;;;;;;5072504;28;19931;-76
2022/01/21 02:49:48;;;;;;;;;;;2.70;99.90;;;;;;5088678;28;19920;-77
2022/01/21 02:52:17;;;;;;;;;;;2.70;99.90;;;;;;5088049;28;19920;-76
2022/01/21 02:54:43;;;;;;;;;;;2.70;99.90;;;;;;5088153;28;20404;-76
2022/01/21 02:57:09;;;;;;;;;;;2.60;99.90;;;;;;5088328;28;19920;-76
2022/01/21 02:59:35;;;;;;;;;;;2.60;99.90;;;;;;5088303;28;19927;-76
2022/01/21 03:02:01;;;;;;;;;;;2.60;99.90;;;;;;5065689;28;20737;-76
2022/01/21 03:04:43;;;;;;;;;;;2.60;99.90;;;;;;5067708;28;19928;-76
2022/01/21 03:07:09;;;;;;;;;;;2.50;99.90;;;;;;5051105;28;20019;-76
2022/01/21 03:09:34;;;;;;;;;;;2.60;99.90;;;;;;5051047;28;20065;-76
2022/01/21 03:12:00;;;;;;;;;;;2.60;99.90;;;;;;5067527;28;19974;-77
2022/01/21 03:14:25;;;;;;;;;;;2.60;99.90;;;;;;5050754;28;20392;-76
2022/01/21 03:16:51;;;;;;;;;;;2.60;99.90;;;;;;5067428;28;19927;-76
2022/01/21 03:19:16;;;;;;;;;;;2.70;99.90;;;;;;5069093;28;20011;-76
2022/01/21 03:21:45;;;;;;;;;;;2.70;99.90;;;;;;5068669;28;20715;-76
2022/01/21 03:24:10;;;;;;;;;;;2.80;99.90;;;;;;5067705;28;19928;-76
2022/01/21 03:26:36;;;;;;;;;;;2.80;99.90;;;;;;5067116;28;19930;-76
2022/01/21 03:29:03;;;;;;;;;;;2.80;99.90;;;;;;5050966;28;20283;-76
2022/01/21 03:31:30;;;;;;;;;;;2.90;99.90;;;;;;5068779;28;19920;-77
2022/01/21 03:33:59;;;;;;;;;;;2.80;99.90;;;;;;5051879;28;19921;-76
2022/01/21 03:36:25;;;;;;;;;;;2.80;99.90;;;;;;5059175;28;19926;-76
2022/01/21 03:38:51;;;;;;;;;;;2.80;99.90;;;;;;5072246;28;20322;-76
2022/01/21 03:41:17;;;;;;;;;;;2.80;99.90;;;;;;5088481;28;20004;-76
2022/01/21 03:43:42;;;;;;;;;;;2.80;99.90;;;;;;5089884;28;19920;-76
2022/01/21 03:46:08;;;;;;;;;;;2.70;99.90;;;;;;5089541;28;19920;-76
2022/01/21 03:48:33;;;;;;;;;;;2.70;99.90;;;;;;5071255;28;19978;-76
2022/01/21 03:50:59;;;;;;;;;;;2.60;99.90;;;;;;5087352;28;19920;-77
2022/01/21 03:53:25;;;;;;;;;;;2.60;99.90;;;;;;5087706;28;19920;-76
2022/01/21 03:55:51;;;;;;;;;;;2.60;99.90;;;;;;5088674;28;19978;-76
2022/01/21 03:58:17;;;;;;;;;;;2.60;99.90;;;;;;5087374;28;19920;-77
2022/01/21 04:00:44;;;;;;;;;;;2.70;99.90;;;;;;5070807;28;19924;-76
2022/01/21 04:03:09;;;;;;;;;;;2.70;99.90;;;;;;5089978;28;19924;-76
2022/01/21 04:05:35;;;;;;;;;;;2.80;99.90;;;;;;5073653;28;19927;-77
2022/01/21 04:08:02;;;;;;;;;;;2.80;99.90;;;;;;5074442;28;19969;-76
2022/01/21 04:10:28;;;;;;;;;;;2.80;99.90;;;;;;5091033;28;19920;-76
2022/01/21 04:12:53;;;;;;;;;;;2.80;99.90;;;;;;5091393;28;20392;-77
2022/01/21 04:15:19;;;;;;;;;;;2.70;99.90;;;;;;5074199;28;19924;-76
2022/01/21 04:17:45;;;;;;;;;;;2.70;99.90;;;;;;5091416;28;20006;-76
2022/01/21 04:20:12;;;;;;;;;;;2.60;99.90;;;;;;5090595;28;20470;-76
2022/01/21 04:22:37;;;;;;;;;;;2.60;99.90;;;;;;5091197;28;20336;-76
2022/01/21 04:25:03;;;;;;;;;;;2.50;99.90;;;;;;5091503;28;19920;-76
2022/01/21 04:27:29;;;;;;;;;;;2.50;99.90;;;;;;5091394;28;19963;-76
2022/01/21 04:29:54;;;;;;;;;;;2.50;99.90;;;;;;5091274;28;20361;-77
2022/01/21 04:32:20;;;;;;;;;;;2.50;99.90;;;;;;5093106;28;19969;-76
2022/01/21 04:34:45;;;;;;;;;;;2.60;99.90;;;;;;5091483;28;19926;-76
2022/01/21 04:37:13;;;;;;;;;;;2.60;99.90;;;;;;5077510;28;20336;-77
2022/01/21 04:39:46;;;;;;;;;;;2.60;99.90;;;;;;5070935;28;19921;-76
2022/01/21 04:47:27;;;;;;;;;;;2.60;99.90;;;;;;5070963;28;19926;-77
2022/01/21 04:49:53;;;;;;;;;;;2.60;99.90;;;;;;5072319;28;19927;-76
2022/01/21 04:52:19;;;;;;;;;;;2.70;99.90;;;;;;5072058;28;19920;-76
2022/01/21 04:54:45;;;;;;;;;;;2.70;99.90;;;;;;5070770;28;19921;-77
2022/01/21 04:57:11;;;;;;;;;;;2.70;99.90;;;;;;5054194;28;19925;-76
2022/01/21 04:59:39;;;;;;;;;;;2.60;99.90;;;;;;5071356;28;19924;-77
2022/01/21 05:02:04;;;;;;;;;;;2.60;99.90;;;;;;5054114;28;19920;-77
2022/01/21 05:04:30;;;;;;;;;;;2.60;99.90;;;;;;5070305;28;19921;-77
2022/01/21 05:06:55;;;;;;;;;;;2.50;99.90;;;;;;5054115;28;20010;-76
2022/01/21 05:09:30;;;;;;;;;;;2.50;99.90;;;;;;5053513;28;20020;-77
2022/01/21 05:11:56;;;;;;;;;;;2.50;99.90;;;;;;5054117;28;19928;-76
2022/01/21 05:14:26;;;;;;;;;;;2.50;99.90;;;;;;5071153;28;19928;-77
2022/01/21 05:17:00;;;;;;;;;;;2.50;99.90;;;;;;5053067;28;20025;-76
2022/01/21 05:19:26;;;;;;;;;;;2.50;99.90;;;;;;5070446;28;19970;-77
2022/01/21 05:21:51;;;;;;;;;;;2.60;99.90;;;;;;5070509;28;19971;-77
2022/01/21 05:24:19;;;;;;;;;;;2.60;99.90;;;;;;5070083;28;20298;-77
2022/01/21 05:26:53;;;;;;;;;;;2.50;99.90;;;;;;5053363;28;20394;-77
2022/01/21 05:29:19;;;;;;;;;;;2.50;99.90;;;;;;5069865;28;19920;-76
2022/01/21 05:31:45;;;;;;;;;;;2.40;99.90;;;;;;5069864;28;19920;-76
2022/01/21 05:34:11;;;;;;;;;;;2.40;99.90;;;;;;5053287;28;19924;-76
2022/01/21 05:36:40;;;;;;;;;;;2.40;99.90;;;;;;5079393;28;19924;-76
2022/01/21 05:39:10;;;;;;;;;;;2.40;99.90;;;;;;5089939;28;19926;-76
2022/01/21 05:41:35;;;;;;;;;;;2.40;99.90;;;;;;5089929;28;19973;-76
2022/01/21 05:44:09;;;;;;;;;;;2.40;99.90;;;;;;5072702;28;19924;-76
2022/01/21 05:49:15;;;;;;;;;;;2.60;99.90;;;;;;5089842;28;19920;-77
2022/01/21 05:51:41;;;;;;;;;;;2.70;99.90;;;;;;5072877;28;19924;-76
2022/01/21 05:54:08;;;;;;;;;;;2.80;99.90;;;;;;5089737;28;19920;-76
2022/01/21 05:56:34;;;;;;;;;;;2.80;99.90;;;;;;5089566;28;19949;-76
2022/01/21 05:59:00;;;;;;;;;;;2.90;99.90;;;;;;5090786;28;20015;-76
2022/01/21 06:01:26;;;;;;;;;;;3.00;99.90;;;;;;5090063;28;19924;-76
2022/01/21 06:03:52;;;;;;;;;;;3.00;99.90;;;;;;5089620;28;19924;-76
2022/01/21 06:06:17;;;;;;;;;;;3.00;99.90;;;;;;5089405;28;19931;-77
2022/01/21 06:08:43;;;;;;;;;;;3.00;99.90;;;;;;5072595;28;20011;-77
2022/01/21 06:11:08;;;;;;;;;;;3.00;99.90;;;;;;5089405;28;19920;-77
2022/01/21 06:13:35;;;;;;;;;;;3.00;99.90;;;;;;5089252;28;19920;-77
2022/01/21 06:16:00;;;;;;;;;;;3.00;99.90;;;;;;5089702;28;19920;-76
2022/01/21 06:18:26;;;;;;;;;;;3.00;99.90;;;;;;5090513;28;20553;-76
2022/01/21 06:20:52;;;;;;;;;;;3.00;99.90;;;;;;5088880;28;19920;-76
2022/01/21 06:23:17;;;;;;;;;;;3.00;99.90;;;;;;5089417;28;19986;-76
2022/01/21 06:25:43;;;;;;;;;;;3.00;99.90;;;;;;5088174;28;19920;-76
2022/01/21 06:28:08;;;;;;;;;;;3.00;99.90;;;;;;5071887;28;20017;-76
2022/01/21 06:30:34;;;;;;;;;;;3.00;99.90;;;;;;5088471;28;19972;-77
2022/01/21 06:32:59;;;;;;;;;;;3.00;99.90;;;;;;5088417;28;19928;-76
2022/01/21 06:35:25;;;;;;;13.23;1.77;;;3.00;99.90;;;;;;5088907;28;19973;-76
2022/01/21 06:37:51;;;;;;;18.20;2.57;;;3.00;99.90;;;;;;5050694;28;20843;-76
2022/01/21 06:40:20;;;;;;;15.87;2.67;;;2.90;99.90;;;;;;5049845;28;20810;-77
2022/01/21 06:42:51;;;;;;;13.13;2.28;;;3.00;99.90;;;;;;5066424;28;20407;-74
2022/01/21 06:45:18;;;;;;;18.73;3.25;;;2.90;99.90;;;;;;5067540;28;20791;-74
2022/01/21 06:47:44;;;;;;;18.63;2.40;;;3.00;99.90;;;;;;5063644;28;20804;-75
2022/01/21 06:50:10;;;;;;;15.77;2.08;;;2.90;99.90;;;;;;5066674;28;20438;-75
2022/01/21 06:52:36;;;;;;;18.92;2.90;;;2.90;99.90;;;;;;5049893;28;20461;-75
2022/01/21 06:55:03;;;;;;;18.47;2.30;;;2.90;99.90;;;;;;5066370;28;20766;-76
2022/01/21 06:57:29;;;;;;;16.95;2.63;;;2.90;99.90;;;;;;5066117;28;20457;-76
2022/01/21 06:59:55;;;;;;;20.38;2.83;;;2.90;99.90;;;;;;5049520;28;20758;-76
2022/01/21 07:02:21;;;;;;;15.00;2.60;;;2.80;99.90;;;;;;5065825;28;20560;-76
2022/01/21 07:04:48;;;;;;;17.27;2.80;;;2.80;99.90;;;;;;5066027;28;20514;-76
2022/01/21 07:07:15;;;;;;;21.05;2.65;;;2.80;99.90;;;;;;5049246;28;20433;-76
2022/01/21 07:09:41;;;;;;;17.02;2.47;;;2.70;99.90;;;;;;5049768;28;20411;-76
2022/01/21 07:12:07;;;;;;;13.15;2.50;;;2.70;99.90;;;;;;5065841;28;20407;-76
2022/01/21 07:14:33;;;;;;;18.65;2.85;;;2.70;99.90;;;;;;5066176;28;20407;-76
2022/01/21 07:16:58;;;;;;;18.67;2.75;;;2.70;99.90;;;;;;5066588;28;20448;-76
2022/01/21 07:19:24;;;;;;;16.92;2.70;;;2.70;99.90;;;;;;5066397;28;20804;-77
2022/01/21 07:21:50;;;;;;;18.15;2.80;;;2.70;99.90;;;;;;5049788;28;20419;-76
2022/01/21 07:24:16;;;;;;;19.58;3.03;;;2.70;99.90;;;;;;5050289;28;20569;-76
2022/01/21 07:26:41;;;;;;;18.33;2.83;;;2.80;99.90;;;;;;5065601;28;20426;-76
2022/01/21 07:29:07;;;;;;;17.87;2.67;;;2.80;99.90;;;;;;5066621;28;20419;-76
2022/01/21 07:31:32;;;;;;;15.98;2.20;;;2.90;99.90;;;;;;5066040;28;20443;-76
2022/01/21 07:34:01;;;;;;;18.30;2.57;;;2.90;99.90;;;;;;5066488;28;20411;-76
2022/01/21 07:36:27;;;;;;;14.45;1.75;;;3.00;99.90;;;;;;5057166;28;20398;-76
2022/01/21 07:38:53;;;;;;;16.45;2.33;;;3.00;99.90;;;;;;5089852;28;20822;-76
2022/01/21 07:41:19;;;;;;;17.58;2.28;;;3.00;99.90;;;;;;5090911;28;20902;-76
2022/01/21 07:43:44;;;;;;;13.77;2.07;;;2.90;99.90;;;;;;5090991;28;20401;-77
2022/01/21 07:46:10;;;;;;;13.90;1.87;;;3.00;99.90;;;;;;5089917;28;20946;-76
2022/01/21 07:48:35;;;;;;;15.38;2.10;;;3.00;99.90;;;;;;5090407;28;20413;-76
2022/01/21 07:51:01;;;;;;;12.20;2.27;;;2.90;99.90;;;;;;5090590;28;20460;-76
2022/01/21 07:53:27;;;;;;;13.80;2.23;;;2.90;99.90;;;;;;5090316;28;20531;-76
2022/01/21 07:55:52;;;;;;;12.00;2.00;;;2.90;99.90;;;;;;5090443;28;20437;-76
2022/01/21 07:58:19;;;;;;;15.10;2.07;;;3.00;99.90;;;;;;5089551;28;20464;-76
2022/01/21 08:00:45;;;;;;;12.68;2.00;;;2.90;99.90;;;;;;5072771;28;20402;-76
2022/01/21 08:03:10;;;;;;;11.02;1.67;;;2.90;99.90;;;;;;5089620;28;20409;-76
2022/01/21 08:05:36;;;;;;;13.63;2.30;;;2.90;99.90;;;;;;5072817;28;20404;-77
2022/01/21 08:08:03;;;;;;;17.73;2.10;;;2.90;99.90;;;;;;5089362;28;20884;-76
2022/01/21 08:10:29;;;;;;;12.63;1.67;;;2.90;99.90;;;;;;5089308;28;20433;-76
2022/01/21 08:12:54;;;;;;;17.42;2.45;;;2.90;99.90;;;;;;5089275;28;20740;-76
2022/01/21 08:15:20;;;;;;;16.77;2.10;;;2.90;99.90;;;;;;5089372;28;20493;-76
2022/01/21 08:17:46;;;;;;;17.70;2.40;;;2.80;99.90;;;;;;5072257;28;20791;-77
2022/01/21 08:20:11;;;;;;;18.88;2.53;;;2.80;99.90;;;;;;5089101;28;20875;-76
2022/01/21 08:22:37;;;;;;;18.05;2.70;;;2.80;99.90;;;;;;5090708;28;20451;-76
2022/01/21 08:25:04;;;;;;;17.20;2.90;;;2.80;99.90;;;;;;5090103;28;20408;-76
2022/01/21 08:27:30;;;;;;;20.38;2.92;;;2.80;99.90;;;;;;5072444;28;20414;-76
2022/01/21 08:29:56;;;;;;;17.52;2.97;;;2.90;99.90;;;;;;5089396;28;20457;-76
2022/01/21 08:32:22;;;;;;;21.27;2.67;;;2.90;99.90;;;;;;5071464;28;20410;-76
2022/01/21 08:34:49;;;;;;;23.00;3.63;;;3.00;99.90;;;;;;5088950;28;20891;-77
2022/01/21 08:37:15;;;;;;;20.03;2.87;;;3.00;99.90;;;;;;5076260;28;20478;-76
2022/01/21 08:39:43;;;;;;;19.23;3.17;;;3.00;99.90;;;;;;5068374;28;20431;-77
2022/01/21 08:42:09;;;;;;;15.98;3.15;;;3.00;99.90;;;;;;5069005;28;20423;-76
2022/01/21 08:44:35;;;;;;;20.33;3.13;;;3.10;99.90;;;;;;5051632;28;20403;-76
2022/01/21 08:47:00;;;;;;;19.17;3.42;;;3.20;99.90;;;;;;5068418;28;20406;-76
2022/01/21 08:49:26;;;;;;;22.75;3.22;;;3.30;99.90;;;;;;5051356;28;20467;-76
2022/01/21 08:51:55;;;;;;;21.23;3.53;;;3.30;99.90;;;;;;5051839;28;20400;-77
2022/01/21 08:54:22;;;;;;;25.05;3.92;;;3.40;99.90;;;;;;5067785;28;20410;-77
2022/01/21 08:56:50;;;;;;;24.05;3.92;;;3.40;99.90;;;;;;5068930;28;20805;-76
2022/01/21 08:59:17;;;;;;;19.98;3.58;;;3.40;99.90;;;;;;5051377;28;20412;-77
2022/01/21 09:01:44;;;;;;;19.17;3.58;;;3.40;99.90;;;;;;5068323;28;20426;-76
2022/01/21 09:04:09;;;;;;;19.45;3.55;;;3.40;99.90;;;;;;5068637;28;20448;-77
2022/01/21 09:06:35;;;;;;;22.05;3.90;;;3.40;99.90;;;;;;5068290;28;20490;-77
2022/01/21 09:09:01;;;;;;;19.67;3.40;;;3.40;99.90;;;;;;5068303;28;20432;-76
2022/01/21 09:11:27;;;;;;;21.92;3.78;;;3.40;99.90;;;;;;5051645;28;20435;-77
2022/01/21 09:13:53;;;;;;;18.70;2.80;;;3.40;99.90;;;;;;5051110;28;20410;-78
2022/01/21 09:16:20;;;;;;;26.55;4.18;;;3.40;99.90;;;;;;5051616;28;20445;-77
2022/01/21 09:18:51;;;;;;;20.88;3.75;;;3.40;99.90;;;;;;5050936;28;20410;-76
2022/01/21 09:21:20;;;;;;;26.98;4.55;;;3.40;99.90;;;;;;5069158;28;20400;-76
2022/01/21 09:23:48;;;;;;;26.13;3.80;;;3.50;99.90;;;;;;5068115;28;20889;-77
2022/01/21 09:26:18;;;;;;;25.23;3.97;;;3.50;99.90;;;;;;5069124;28;20419;-76
2022/01/21 09:28:44;;;;;;;27.70;4.95;;;3.50;99.90;;;;;;5068818;28;20414;-77
2022/01/21 09:31:10;;;;;;;23.80;4.00;;;3.60;99.90;;;;;;5067758;28;20435;-77
2022/01/21 09:33:36;;;;;;;25.70;3.95;;;3.60;99.90;;;;;;5067557;28;20766;-77
2022/01/21 09:36:02;;;;;;;25.17;4.70;;;3.70;99.90;;;;;;5054818;28;20417;-77
2022/01/21 09:38:29;;;;;;;22.88;3.67;;;3.80;99.90;;;;;;5088167;28;20402;-77
2022/01/21 09:40:56;;;;;;;29.10;4.17;;;3.90;99.90;;;;;;5087664;28;20406;-77
2022/01/21 09:43:22;;;;;;;31.35;4.30;;;4.00;99.90;;;;;;5088291;28;20398;-77
2022/01/21 09:45:53;;;;;;;28.80;3.85;;;4.10;99.90;;;;;;5087846;28;20535;-77
2022/01/21 09:48:23;;;;;;;28.08;4.57;;;4.20;99.90;;;;;;5070326;28;20434;-77
2022/01/21 09:50:55;;;;;;;27.63;4.30;;;4.30;99.90;;;;;;5088655;28;20426;-76
2022/01/21 09:53:29;;;;;;;25.05;3.70;;;4.30;99.90;;;;;;5069837;28;20438;-77
2022/01/21 09:55:57;;;;;;;27.92;4.50;;;4.40;99.90;;;;;;5070177;28;20418;-76
2022/01/21 09:58:25;;;;;;;26.65;4.07;;;4.50;99.90;;;;;;5070645;28;20402;-76
2022/01/21 10:00:51;;;;;;;20.38;3.05;;;4.60;99.90;;;;;;5086337;28;20900;-77
2022/01/21 10:03:18;;;;;;;22.60;3.30;;;4.70;99.90;;;;;;5070970;28;20764;-77
2022/01/21 10:05:46;;;;;;;18.45;2.80;;;4.80;99.90;;;;;;5087453;28;20403;-76
2022/01/21 10:08:13;;;;;;;16.88;2.83;;;4.90;99.90;;;;;;5087791;28;20401;-77
2022/01/21 10:10:41;;;;;;;19.00;2.87;;;5.00;99.90;;;;;;5089086;28;20426;-77
2022/01/21 10:13:08;;;;;;;16.52;2.85;;;5.20;99.90;;;;;;5088500;28;20769;-76
2022/01/21 10:15:36;;;;;;;15.45;2.40;;;5.30;99.90;;;;;;5087400;28;20711;-77
2022/01/21 10:18:23;;;;;;;15.25;2.10;;;5.30;99.90;;;;;;5088659;28;20394;-76
2022/01/21 10:21:00;;;;;;;14.27;2.47;;;5.40;99.90;;;;;;5070484;28;20512;-77
2022/01/21 10:23:28;;;;;;;14.32;2.35;;;5.40;99.90;;;;;;5087903;28;20410;-76
2022/01/21 10:26:02;;;;;;;17.65;2.50;;;5.50;99.90;;;;;;5087598;28;20768;-76
2022/01/21 10:28:30;;;;;;;19.13;3.58;;;5.50;99.90;;;;;;5069809;28;20417;-77
2022/01/21 10:31:16;;;;;;;24.38;6.70;;;5.60;99.90;;;;;;5086612;28;20446;-76
2022/01/21 10:33:48;;;;;;;18.42;3.22;;;5.50;99.90;;;;;;5070379;28;20402;-77
2022/01/21 10:36:24;;;;;;;25.00;2.88;;;5.60;99.90;;;;;;5081337;28;20438;-77
2022/01/21 10:38:54;;;;;;;24.47;3.50;;;5.50;99.90;;;;;;5050475;28;20408;-77
2022/01/21 10:41:21;;;;;;;22.20;3.10;;;5.50;99.90;;;;;;5050380;28;21262;-77
2022/01/21 10:44:10;;;;;;;21.52;3.10;;;5.50;99.90;;;;;;5050887;28;20403;-77
2022/01/21 10:46:37;;;;;;;24.98;3.60;;;5.50;99.90;;;;;;5050505;28;20491;-77
2022/01/21 10:49:09;;;;;;;21.60;3.25;;;5.50;99.90;;;;;;5050813;28;20439;-77
2022/01/21 10:51:40;;;;;;;26.50;3.13;;;5.50;99.90;;;;;;5066892;28;20526;-77
2022/01/21 10:54:26;;;;;;;20.92;3.65;;;5.50;99.90;;;;;;5067239;28;20526;-77
2022/01/21 10:57:09;;;;;;;24.25;3.55;;;5.60;99.90;;;;;;5067401;28;20834;-77
2022/01/21 11:00:02;;;;;;;22.55;3.00;;;5.70;99.90;;;;;;5050353;28;20839;-77
2022/01/21 11:02:28;;;;;;;22.23;3.40;;;5.70;99.90;;;;;;5066692;28;20412;-77
2022/01/21 11:04:54;;;;;;;25.35;3.15;;;5.70;99.90;;;;;;5068384;28;20902;-77
2022/01/21 11:08:10;;;;;;;19.98;3.00;;;5.80;99.90;;;;;;5068460;28;20422;-77
2022/01/21 11:10:42;;;;;;;23.77;3.10;;;5.90;99.90;;;;;;5033755;28;20550;-77
2022/01/21 11:13:19;;;;;;;23.63;3.30;;;5.90;99.90;;;;;;5067082;28;20861;-78
2022/01/21 11:15:58;;;;;;;22.73;3.10;;;6.00;99.90;;;;;;5065763;28;20408;-77
2022/01/21 11:18:25;;;;;;;27.00;3.63;;;6.00;99.90;;;;;;5067009;28;20408;-76
2022/01/21 11:21:04;;;;;;;23.38;2.83;;;6.10;99.90;;;;;;5067325;28;20506;-77
2022/01/21 11:23:30;;;;;;;14.35;2.55;;;6.10;99.90;;;;;;5068099;28;20051;-77
2022/01/21 11:26:00;;;;;;;23.38;3.30;;;6.10;99.90;;;;;;5066906;28;20398;-78
2022/01/21 11:28:35;;;;;;;19.55;2.65;;;6.10;99.90;;;;;;5068138;28;20052;-78
2022/01/21 11:31:01;;;;;;;28.10;3.25;;;6.10;99.90;;;;;;5066619;28;20138;-76
2022/01/21 11:33:26;;;;;;;20.00;2.58;;;6.10;99.90;;;;;;5050280;28;20127;-76
2022/01/21 11:35:52;;;;;;;24.02;3.22;;;6.10;99.90;;;;;;5069984;28;20140;-76
2022/01/21 11:38:22;;;;;;;27.13;3.08;;;6.20;99.90;;;;;;5088351;28;20044;-76
2022/01/21 11:40:49;;;;;;;25.52;2.92;;;6.30;99.90;;;;;;5086373;28;20102;-76
2022/01/21 11:43:16;;;;;;;22.20;2.25;;;6.40;99.90;;;;;;5087242;28;20052;-76
2022/01/21 11:48:55;;;;;;;19.90;2.08;;;6.50;99.90;;;;;;5087105;28;20063;-76
2022/01/21 11:51:33;;;;;;;14.95;1.80;;;6.60;99.90;;;;;;5086694;28;20514;-76
2022/01/21 11:54:00;;;;;;;14.68;2.20;;;6.60;99.90;;;;;;5088218;28;20064;-76
2022/01/21 11:56:42;;;;;;;14.43;2.65;;;6.70;99.90;;;;;;5086997;28;20055;-76
2022/01/21 11:59:20;;;;;;;10.88;1.85;;;6.80;99.90;;;;;;5069909;28;20094;-78
2022/01/21 12:01:48;;;;;;;13.20;1.70;;;6.80;99.90;;;;;;5088352;28;20418;-78
2022/01/21 12:04:38;;;;;;;14.75;1.58;;;6.90;99.90;;;;;;5087123;28;20055;-78
2022/01/21 12:07:24;;;;;;;17.45;2.45;;;6.90;99.90;;;;;;5058211;28;20059;-78
2022/01/21 12:10:29;;;;;;;17.42;2.05;;;6.90;99.90;;;;;;5087925;28;20051;-76
2022/01/21 12:13:05;;;;;;;13.40;1.63;;;7.00;99.90;;;;;;4989377;28;20042;-76
2022/01/21 12:21:41;;;;;;;20.73;3.03;;;7.10;99.90;;;;;;5048875;28;20102;-78
2022/01/21 12:24:09;;;;;;;18.48;1.70;;;7.10;99.90;;;;;;5034166;28;20044;-78
2022/01/21 12:26:36;;;;;;;13.43;2.22;;;7.00;99.90;;;;;;5052325;28;20052;-77
2022/01/21 12:29:02;;;;;;;18.73;1.92;;;7.00;99.90;;;;;;5090759;28;20060;-77
2022/01/21 12:31:41;;;;;;;14.40;2.38;;;7.00;99.90;;;;;;5090335;28;20513;-78
2022/01/21 12:34:11;;;;;;;12.35;2.05;;;7.00;99.90;;;;;;5090370;28;20132;-77
2022/01/21 12:36:43;;;;;;;11.73;1.50;;;7.00;99.90;;;;;;5064622;28;20080;-77
2022/01/21 12:39:38;;;;;;;15.10;2.67;;;7.00;99.90;;;;;;5071657;28;20048;-77
2022/01/21 12:42:26;;;;;;;13.60;1.40;;;7.00;99.90;;;;;;5070480;28;20045;-77
2022/01/21 12:45:07;;;;;;;15.70;2.05;;;6.90;99.90;;;;;;5070001;28;20054;-77
2022/01/21 12:47:44;;;;;;;17.52;1.95;;;6.90;99.90;;;;;;5069919;28;20451;-77
2022/01/21 12:53:16;;;;;;;18.33;2.17;;;6.90;99.90;;;;;;5069491;28;20052;-77
2022/01/21 12:55:59;;;;;;;11.98;1.85;;;6.90;99.90;;;;;;5071091;28;20449;-77
2022/01/21 12:58:40;;;;;;;11.50;1.55;;;6.90;99.90;;;;;;5069703;28;20041;-77
2022/01/21 13:01:11;;;;;;;16.83;2.22;;;6.90;99.90;;;;;;5052991;28;20040;-77
2022/01/21 13:04:02;;;;;;;13.95;1.77;;;6.90;99.90;;;;;;5070665;28;20120;-77
2022/01/21 13:06:36;;;;;;;11.48;1.95;;;6.90;99.90;;;;;;5070649;28;20124;-77
2022/01/21 13:09:18;;;;;;;18.33;2.45;;;6.90;99.90;;;;;;5069816;28;20418;-77
2022/01/21 13:11:58;;;;;;;15.20;2.00;;;6.90;99.90;;;;;;5069392;28;20063;-78
2022/01/21 13:17:09;;;;;;;16.90;2.70;;;6.80;99.90;;;;;;5069037;28;20909;-77
2022/01/21 13:19:44;;;;;;;23.60;2.33;;;6.80;99.90;;;;;;5069338;28;20441;-77
2022/01/21 13:22:23;;;;;;;15.95;2.83;;;6.80;99.90;;;;;;5070316;28;20041;-77
2022/01/21 13:25:04;;;;;;;15.85;2.03;;;6.90;99.90;;;;;;5069115;28;20399;-77
2022/01/21 13:27:31;;;;;;;12.77;1.70;;;6.90;99.90;;;;;;5069144;28;20059;-77
2022/01/21 13:30:03;;;;;;;13.88;1.88;;;7.00;99.90;;;;;;5068891;28;20469;-77
2022/01/21 13:32:29;;;;;;;13.73;1.73;;;7.00;99.90;;;;;;5070295;28;20048;-77
2022/01/21 13:35:10;;;;;;;12.13;1.95;;;7.00;99.90;;;;;;5068456;28;20052;-77
2022/01/21 13:37:41;;;;;;;13.73;1.45;;;7.00;99.90;;;;;;5087146;28;20040;-77
2022/01/21 13:40:09;;;;;;;17.08;2.42;;;7.00;99.90;;;;;;5089827;28;20465;-77
2022/01/21 13:42:36;;;;;;;13.48;2.28;;;7.00;99.90;;;;;;5072147;28;20050;-77
2022/01/21 13:45:08;;;;;;;10.07;1.50;;;7.00;99.90;;;;;;5089112;28;20044;-77
2022/01/21 13:47:48;;;;;;;13.23;1.77;;;7.00;99.90;;;;;;5089864;28;20051;-77
2022/01/21 13:50:23;;;;;;;16.23;1.92;;;7.00;99.90;;;;;;5071288;28;20048;-77
2022/01/21 13:52:54;;;;;;;16.08;2.38;;;7.00;99.90;;;;;;5072208;28;20511;-77
2022/01/21 13:55:30;;;;;;;16.10;2.13;;;6.90;99.90;;;;;;5088912;28;20036;-77
2022/01/21 13:57:58;;;;;;;19.67;2.25;;;6.90;99.90;;;;;;5089904;28;20048;-77
2022/01/21 14:00:35;;;;;;;28.08;2.72;;;6.90;99.90;;;;;;5089855;28;20040;-77
2022/01/21 14:03:14;;;;;;;18.67;2.78;;;6.90;99.90;;;;;;5088252;28;20157;-77
2022/01/21 14:06:01;;;;;;;21.17;2.60;;;6.90;99.90;;;;;;5071558;28;20090;-77
2022/01/21 14:08:31;;;;;;;15.18;2.22;;;6.90;99.90;;;;;;5087849;28;20067;-77
2022/01/21 14:11:10;;;;;;;21.92;2.63;;;6.90;99.90;;;;;;5071455;28;20044;-77
2022/01/21 14:13:44;;;;;;;21.75;3.80;;;6.90;99.90;;;;;;5088231;28;20040;-77
2022/01/21 14:16:16;;;;;;;20.33;3.22;;;6.90;99.90;;;;;;5089273;28;20076;-77
2022/01/21 14:18:43;;;;;;;19.85;2.50;;;7.00;99.90;;;;;;5088260;28;20055;-77
2022/01/21 14:21:09;;;;;;;25.83;3.22;;;6.90;99.90;;;;;;5089404;28;20417;-77
2022/01/21 14:23:37;;;;;;;26.88;3.78;;;7.00;99.90;;;;;;5088350;28;20044;-77
2022/01/21 14:26:05;;;;;;;22.25;2.97;;;7.00;99.90;;;;;;5088011;28;20757;-77
2022/01/21 14:28:42;;;;;;;24.83;3.00;;;7.00;99.90;;;;;;5087572;28;20052;-77
2022/01/21 14:31:24;;;;;;;21.60;2.88;;;7.00;99.90;;;;;;5088233;28;20048;-77
2022/01/21 14:33:50;;;;;;;21.20;3.20;;;7.00;99.90;;;;;;5087813;28;20079;-77
2022/01/21 14:36:18;;;;;;;20.13;3.05;;;7.00;99.90;;;;;;5065021;28;20143;-77